Lavaca, Arkansas
Current Conditions -  °F | °C
As of 4:53 AM on Saturday 20 Dec 2014 (Local Time) from KFSM Reporting Station
Haze Haze  
Wind Chill: 42°   Ceiling: 700
Heat Index: 42°   Visibility: 6mi
Dew Point: 38°   Wind: 0mph
Humidity: 85%   Direction: NA
Pressure: 30.23"   Gusts: NA
Location:  35.34°N, 94.17°W
Report Text: KFSM 201053Z AUTO 00000KT 6SM BR OVC007 06/03 A3023 RMK AO2 SLP240 T00560033
Loading
Personal Weather Stations






























Interactive Weather Map New forecast layout! Learn more

10-Day Weather Forecast

Advertisements
Track Severe Weather on mobile